Cincinnati Municipal Airport Lunken Field
KLUK : now visible

Airfield :











YOU CAN JOIN US ON...

 
LOGIN :

Register | Disclaimer

   EN    FR    IT 

 









Legend :    VFR   Marginal VFR   IFR   Intensive IFR   Very Intensive IFR
Visi :
Ceiling :
>= 8 km
>= 3000ft
5 to 8 km
1000 to 3000 ft
1500m to 5 km
500 to 1000 ft
800 to 1500m
200 to 500 ft
< 800m
< 200 ft
Symbols :   Thunderstorms  Fog  Heavy snow  Heavy precipitations  Wind > 20 kt






- Airport Elevation : 483 ft
- IATA code : LUK


KLUK - Cincinnati Municipal Lunken Field

CURRENT METAR :
  • 220153Z 31005KT 10SM FEW028 FEW044 SCT070 04/M01 A3016 RMK AO2 RAE17 SLP214 P0000 T00391006 $

EXPIRED METARs :
  • 220053Z 21009KT 10SM -RA SCT050 BKN070 BKN090 02/01 A3013 RMK AO2 RAB53 SLP207 P0000 T00170006 $
  • 212353Z 00000KT 10SM CLR 03/00 A3012 RMK AO2 SLP203 60005 T00330000 10078 20017 58009 $

TAF KLUK
Valid from the 22 at 00:00 until the 23 at 00:00 UTC


212333Z 2200/2224 23005KT P6SM VCSH SCT060
FM220200 VRB02KT P6SM FEW060
FM220700 24004KT P6SM BKN060
TEMPO 2208/2212 4SM BR SCT060
FM221500 26012G18KT P6SM SCT070
KZID FIR / North America



MET'MAP, your aeronautical weather chart ! - Copyright ORBIFLY December 2007 - Disclaimer

ORBIFLY MET'MAP TEAM :

Programming & Development : Alexandra Zaïnal
Concept & original design : Baudouin d'Aumeries
Assistance for programming : Marc-Olivier Méhu
Technical & hardware support : Manuel Goepfert

Contact : metmap@orbifly.com




SOURCES & CREDITS :

   NOAA       Earth
Advisory